Time;durP1;ratioP1;P1;durP2;ratioP2;P2;SDS_P1;SDS_P2;PMS_P1;PMS_P2;Temp;Humidity;BMP_temperature;BMP_pressure;BME280_temperature;BME280_humidity;BME280_pressure;Samples;Min_cycle;Max_cycle;Signal;HPM_P1;HPM_P2
2022/05/19 00:01:12;;;;;;;16.75;14.07;;;18.50;99.90;;;;;;5034924;28;20042;-48
2022/05/19 00:03:38;;;;;;;14.93;13.10;;;18.40;99.90;;;;;;5009903;28;20108;-50
2022/05/19 00:06:06;;;;;;;19.85;15.52;;;18.40;99.90;;;;;;5011298;28;20054;-49
2022/05/19 00:08:32;;;;;;;17.85;15.75;;;18.30;99.90;;;;;;5014879;28;20349;-49
2022/05/19 00:11:03;;;;;;;18.77;15.30;;;18.30;99.90;;;;;;5015864;28;20038;-49
2022/05/19 00:13:30;;;;;;;19.48;16.30;;;18.30;99.90;;;;;;5017041;28;20492;-47
2022/05/19 00:15:56;;;;;;;19.30;17.40;;;18.20;99.90;;;;;;5010059;28;20144;-54
2022/05/19 00:18:22;;;;;;;19.48;17.27;;;18.20;99.90;;;;;;5022215;28;20304;-48
2022/05/19 00:20:48;;;;;;;23.25;19.42;;;18.20;99.90;;;;;;5023686;28;20050;-51
2022/05/19 00:23:14;;;;;;;23.75;19.42;;;18.10;99.90;;;;;;5013549;28;20048;-51
2022/05/19 00:25:40;;;;;;;21.58;18.50;;;18.10;99.90;;;;;;5029776;28;20111;-48
2022/05/19 00:28:06;;;;;;;23.08;19.38;;;18.10;99.90;;;;;;5026469;28;20041;-52
2022/05/19 00:30:33;;;;;;;23.25;19.02;;;18.00;99.90;;;;;;5009565;28;20182;-49
2022/05/19 00:32:59;;;;;;;24.50;21.00;;;18.10;99.90;;;;;;5025857;28;20178;-48
2022/05/19 00:35:24;;;;;;;24.80;20.83;;;18.00;99.90;;;;;;5021395;28;20124;-49
2022/05/19 00:37:50;;;;;;;22.77;19.67;;;18.00;99.90;;;;;;5011908;28;20473;-49
2022/05/19 00:40:19;;;;;;;28.27;20.00;;;17.90;99.90;;;;;;5020482;28;20047;-50
2022/05/19 00:42:44;;;;;;;24.02;20.52;;;17.90;99.90;;;;;;5019642;28;20081;-49
2022/05/19 00:45:13;;;;;;;23.42;21.00;;;17.90;99.90;;;;;;5009743;28;20135;-48
2022/05/19 00:47:45;;;;;;;26.23;21.70;;;17.80;99.90;;;;;;5026169;28;20037;-48
2022/05/19 00:50:24;;;;;;;24.45;21.70;;;17.80;99.90;;;;;;5027764;28;20068;-49
2022/05/19 00:52:55;;;;;;;27.52;23.42;;;17.80;99.90;;;;;;5009948;28;20118;-47
2022/05/19 00:55:28;;;;;;;27.77;23.20;;;17.70;99.90;;;;;;5013890;28;20045;-48
2022/05/19 00:57:59;;;;;;;30.77;25.02;;;17.70;99.90;;;;;;5025561;28;20041;-47
2022/05/19 01:00:26;;;;;;;27.70;23.25;;;17.70;99.90;;;;;;5008531;28;20049;-49
2022/05/19 01:02:57;;;;;;;27.70;24.03;;;17.60;99.90;;;;;;5009604;28;20416;-48
2022/05/19 01:05:52;;;;;;;28.45;25.35;;;17.60;99.90;;;;;;5010907;28;20073;-49
2022/05/19 01:08:29;;;;;;;28.13;24.55;;;17.50;99.90;;;;;;5006859;28;20057;-47
2022/05/19 01:10:57;;;;;;;28.80;24.30;;;17.50;99.90;;;;;;5009097;28;20042;-48
2022/05/19 01:13:23;;;;;;;29.00;25.25;;;17.50;99.90;;;;;;5014149;28;20448;-51
2022/05/19 01:15:52;;;;;;;29.40;26.27;;;17.50;99.90;;;;;;5014900;28;20125;-52
2022/05/19 01:18:18;;;;;;;28.25;25.23;;;17.50;99.90;;;;;;5017877;28;20492;-49
2022/05/19 01:20:46;;;;;;;28.85;25.90;;;17.40;99.90;;;;;;5019899;28;20042;-48
2022/05/19 01:23:44;;;;;;;30.58;26.27;;;17.50;99.90;;;;;;5011538;28;20396;-49
2022/05/19 01:26:24;;;;;;;30.40;25.73;;;17.40;99.90;;;;;;4983661;28;20126;-48
2022/05/19 01:28:50;;;;;;;31.85;26.00;;;17.40;99.90;;;;;;5034669;28;20125;-48
2022/05/19 01:31:34;;;;;;;29.90;26.65;;;17.40;99.90;;;;;;5027715;28;20041;-49
2022/05/19 01:34:02;;;;;;;30.80;26.67;;;17.40;99.90;;;;;;5014919;28;20095;-49
2022/05/19 01:36:28;;;;;;;28.85;25.95;;;17.40;99.90;;;;;;5009955;28;20041;-50
2022/05/19 01:39:06;;;;;;;30.58;25.77;;;17.30;99.90;;;;;;5009549;28;20042;-48
2022/05/19 01:41:51;;;;;;;28.80;25.58;;;17.30;99.90;;;;;;5010569;28;20100;-47
2022/05/19 01:44:36;;;;;;;30.08;26.58;;;17.30;99.90;;;;;;5011867;28;20033;-49
2022/05/19 01:47:12;;;;;;;30.85;27.48;;;17.30;99.90;;;;;;5012562;28;20248;-48
2022/05/19 01:52:38;;;;;;;33.35;28.75;;;17.30;99.90;;;;;;5096293;22;20045;-71
2022/05/19 01:55:08;;;;;;;31.80;28.50;;;17.30;99.90;;;;;;5057737;28;20049;-71
2022/05/19 01:57:46;;;;;;;32.13;27.70;;;17.30;99.90;;;;;;5059461;28;20094;-71
2022/05/19 02:00:17;;;;;;;32.88;28.30;;;17.30;99.90;;;;;;5056377;28;20049;-71
2022/05/19 02:03:04;;;;;;;31.38;28.00;;;17.30;99.90;;;;;;5057876;28;20049;-71
2022/05/19 02:05:53;;;;;;;31.45;28.35;;;17.30;99.90;;;;;;5054758;28;20037;-71
2022/05/19 02:08:34;;;;;;;31.95;27.98;;;17.30;99.90;;;;;;5055779;28;20182;-71
2022/05/19 02:11:02;;;;;;;31.45;28.13;;;17.30;99.90;;;;;;5056517;28;20407;-71
2022/05/19 02:13:31;;;;;;;32.53;29.08;;;17.20;99.90;;;;;;5056198;28;20091;-71
2022/05/19 02:16:00;;;;;;;32.42;29.10;;;17.20;99.90;;;;;;5055092;28;20049;-71
2022/05/19 02:18:27;;;;;;;33.55;28.85;;;17.10;99.90;;;;;;5046972;28;20064;-71
2022/05/19 02:20:55;;;;;;;31.15;27.77;;;17.10;99.90;;;;;;5050367;28;20049;-70
2022/05/19 02:23:21;;;;;;;35.22;28.58;;;17.10;99.90;;;;;;5050495;28;20041;-71
2022/05/19 02:25:49;;;;;;;34.50;30.83;;;17.00;99.90;;;;;;5050693;28;20033;-71
2022/05/19 02:28:27;;;;;;;34.30;29.60;;;17.00;99.90;;;;;;5045867;28;20038;-71
2022/05/19 02:30:54;;;;;;;33.42;29.13;;;17.00;99.90;;;;;;5045353;28;20029;-70
2022/05/19 02:33:21;;;;;;;34.10;30.60;;;16.90;99.90;;;;;;5043613;28;20086;-70
2022/05/19 02:35:47;;;;;;;35.95;30.42;;;16.90;99.90;;;;;;5053195;28;20186;-70
2022/05/19 02:38:14;;;;;;;34.55;30.70;;;16.80;99.90;;;;;;5054389;28;20575;-70
2022/05/19 02:40:41;;;;;;;34.65;31.00;;;16.80;99.90;;;;;;5058172;28;20122;-67
2022/05/19 02:43:07;;;;;;;35.15;31.00;;;16.80;99.90;;;;;;5056118;28;20052;-69
2022/05/19 02:45:33;;;;;;;38.83;32.15;;;16.80;99.90;;;;;;5054950;28;20457;-69
2022/05/19 02:47:59;;;;;;;35.75;31.95;;;16.80;99.90;;;;;;5057180;28;20037;-70
2022/05/19 02:50:26;;;;;;;36.25;32.28;;;16.80;99.90;;;;;;5051379;28;20068;-70
2022/05/19 02:52:52;;;;;;;36.10;32.27;;;16.80;99.90;;;;;;5040981;28;20069;-69
2022/05/19 02:55:18;;;;;;;34.78;31.08;;;16.90;99.90;;;;;;5035246;28;20045;-70
2022/05/19 02:57:43;;;;;;;37.60;33.28;;;16.90;99.90;;;;;;5035040;28;20056;-70
2022/05/19 03:00:13;;;;;;;35.97;31.92;;;16.90;99.90;;;;;;5033284;28;20037;-70
2022/05/19 03:02:43;;;;;;;35.78;31.92;;;17.00;99.90;;;;;;5030618;28;20305;-70
2022/05/19 03:05:12;;;;;;;40.13;33.78;;;17.00;99.90;;;;;;5029550;28;20442;-70
2022/05/19 03:07:38;;;;;;;38.15;33.95;;;17.00;99.90;;;;;;5030865;28;20056;-70
2022/05/19 03:10:05;;;;;;;37.65;33.60;;;17.00;99.90;;;;;;5032359;28;20045;-70
2022/05/19 03:12:31;;;;;;;39.65;32.97;;;17.00;99.90;;;;;;5025375;28;20460;-70
2022/05/19 03:14:57;;;;;;;37.10;33.40;;;17.00;99.90;;;;;;5031101;28;20531;-70
2022/05/19 03:17:23;;;;;;;37.85;33.78;;;17.00;99.90;;;;;;5031560;28;20033;-70
2022/05/19 03:19:53;;;;;;;38.42;34.30;;;17.00;99.90;;;;;;5032763;28;20118;-70
2022/05/19 03:22:19;;;;;;;39.15;34.47;;;17.00;99.90;;;;;;5026075;28;20113;-71
2022/05/19 03:24:44;;;;;;;43.10;34.72;;;17.00;99.90;;;;;;5032500;28;20118;-70
2022/05/19 03:27:10;;;;;;;40.40;36.00;;;16.90;99.90;;;;;;5033209;28;20047;-70
2022/05/19 03:29:36;;;;;;;37.53;33.65;;;16.90;99.90;;;;;;5031111;28;20037;-70
2022/05/19 03:32:01;;;;;;;38.45;34.40;;;16.90;99.90;;;;;;5032992;28;20069;-71
2022/05/19 03:34:27;;;;;;;42.03;37.17;;;16.90;99.90;;;;;;5034142;28;21321;-71
2022/05/19 03:36:53;;;;;;;37.65;34.00;;;16.90;99.90;;;;;;5032369;28;20037;-71
2022/05/19 03:39:19;;;;;;;40.28;36.10;;;16.90;99.90;;;;;;5035063;28;20140;-71
2022/05/19 03:41:44;;;;;;;41.53;37.00;;;16.90;99.90;;;;;;5015561;28;20131;-71
2022/05/19 03:44:10;;;;;;;41.33;36.30;;;16.90;99.90;;;;;;5029716;28;20045;-71
2022/05/19 03:46:36;;;;;;;41.97;37.45;;;16.90;99.90;;;;;;5032291;28;20052;-70
2022/05/19 03:49:02;;;;;;;40.17;35.88;;;16.90;99.90;;;;;;5030480;28;20079;-71
2022/05/19 03:51:32;;;;;;;39.97;35.47;;;16.90;99.90;;;;;;5020654;28;20058;-70
2022/05/19 03:53:58;;;;;;;39.67;35.63;;;16.90;99.90;;;;;;5036305;28;20075;-71
2022/05/19 03:56:25;;;;;;;39.65;34.92;;;16.90;99.90;;;;;;5039382;28;20060;-70
2022/05/19 03:58:50;;;;;;;41.25;36.83;;;16.90;99.90;;;;;;5035058;28;20494;-70
2022/05/19 04:01:17;;;;;;;41.00;36.70;;;16.90;99.90;;;;;;5049951;28;20025;-69
2022/05/19 04:03:43;;;;;;;40.80;36.55;;;16.90;99.90;;;;;;5023827;28;20405;-70
2022/05/19 04:06:09;;;;;;;44.20;38.35;;;16.90;99.90;;;;;;5031932;28;20117;-69
2022/05/19 04:08:35;;;;;;;43.42;38.78;;;16.90;99.90;;;;;;5030224;28;20042;-69
2022/05/19 04:11:01;;;;;;;41.50;37.25;;;16.90;99.90;;;;;;5019028;28;20485;-69
2022/05/19 04:13:27;;;;;;;41.30;37.20;;;16.90;99.90;;;;;;5030478;28;20037;-69
2022/05/19 04:15:52;;;;;;;42.85;38.40;;;17.00;99.90;;;;;;5031795;28;20112;-70
2022/05/19 04:18:18;;;;;;;41.53;37.08;;;17.00;99.90;;;;;;5011661;28;20042;-70
2022/05/19 04:20:44;;;;;;;42.10;37.40;;;17.10;99.90;;;;;;5031070;28;20041;-70
2022/05/19 04:23:10;;;;;;;44.33;38.95;;;17.10;99.90;;;;;;5030692;28;20519;-71
2022/05/19 04:25:37;;;;;;;39.03;35.03;;;17.20;99.90;;;;;;5030927;28;20080;-71
2022/05/19 04:28:03;;;;;;;42.47;38.08;;;17.30;99.90;;;;;;5029937;28;20132;-71
2022/05/19 04:30:29;;;;;;;41.75;36.33;;;17.30;99.90;;;;;;5031033;28;20038;-71
2022/05/19 04:32:54;;;;;;;42.05;37.60;;;17.40;99.90;;;;;;5031474;28;20060;-71
2022/05/19 04:35:21;;;;;;;41.55;36.40;;;17.40;99.90;;;;;;5031790;28;20401;-70
2022/05/19 04:37:47;;;;;;;38.67;34.72;;;17.50;99.90;;;;;;5014007;28;20045;-70
2022/05/19 04:40:14;;;;;;;39.45;35.22;;;17.70;99.90;;;;;;5031316;28;20048;-69
2022/05/19 04:42:41;;;;;;;39.05;34.92;;;17.90;99.90;;;;;;5023010;28;20037;-69
2022/05/19 04:45:08;;;;;;;37.53;33.55;;;18.30;99.90;;;;;;5030881;28;20048;-69
2022/05/19 04:47:34;;;;;;;;;;;18.60;99.90;;;;;;5031966;28;20073;-69
2022/05/19 04:49:59;;;;;;;36.30;32.58;;;18.80;99.90;;;;;;5031878;28;19979;-69
2022/05/19 04:52:25;;;;;;;34.47;30.77;;;18.90;99.90;;;;;;5030265;28;20049;-69
2022/05/19 04:54:50;;;;;;;32.88;29.17;;;18.90;99.90;;;;;;5034030;28;20172;-69
2022/05/19 04:57:16;;;;;;;27.15;24.38;;;18.90;99.90;;;;;;5045590;28;20056;-68
2022/05/19 04:59:42;;;;;;;24.63;21.88;;;18.90;99.90;;;;;;5024631;28;20116;-68
2022/05/19 05:02:10;;;;;;;26.50;23.88;;;19.00;99.90;;;;;;5034328;28;20037;-69
2022/05/19 05:04:36;;;;;;;25.55;21.88;;;19.10;99.90;;;;;;5032952;28;20123;-69
2022/05/19 05:07:02;;;;;;;22.67;20.48;;;19.10;99.90;;;;;;5035252;28;20038;-69
2022/05/19 05:09:27;;;;;;;23.27;20.88;;;19.20;99.90;;;;;;5033454;28;20030;-69
2022/05/19 05:11:53;;;;;;;23.13;20.52;;;19.30;99.90;;;;;;5038570;28;20046;-69
2022/05/19 05:14:19;;;;;;;21.85;19.75;;;19.40;99.90;;;;;;5032099;28;20186;-70
2022/05/19 05:16:52;;;;;;;20.88;18.95;;;19.80;99.90;;;;;;5032684;28;20083;-70
2022/05/19 05:19:22;;;;;;;21.23;19.10;;;20.70;99.90;;;;;;5032779;28;20471;-70
2022/05/19 05:21:49;;;;;;;20.23;17.60;;;21.70;99.90;;;;;;5035819;28;20068;-70
2022/05/19 05:24:15;;;;;;;19.50;17.52;;;22.60;99.90;;;;;;5036995;28;20060;-70
2022/05/19 05:26:41;;;;;;;18.25;16.45;;;23.40;99.90;;;;;;5033692;28;20072;-71
2022/05/19 05:29:06;;;;;;;20.08;17.77;;;23.50;99.90;;;;;;5034422;28;20511;-70
2022/05/19 05:31:32;;;;;;;18.42;16.63;;;23.40;99.90;;;;;;5026100;28;20073;-70
2022/05/19 05:33:58;;;;;;;18.40;16.60;;;23.30;99.90;;;;;;5034266;28;20041;-70
2022/05/19 05:36:23;;;;;;;17.90;16.20;;;22.80;99.90;;;;;;5035769;28;20206;-70
2022/05/19 05:38:49;;;;;;;18.15;16.25;;;22.60;99.90;;;;;;5033851;28;20050;-70
2022/05/19 05:41:15;;;;;;;17.73;15.85;;;22.50;99.90;;;;;;5033815;28;20445;-70
2022/05/19 05:43:41;;;;;;;16.73;15.13;;;22.50;99.90;;;;;;5034741;28;20068;-69
2022/05/19 05:46:10;;;;;;;16.67;15.07;;;22.80;99.90;;;;;;5034736;28;20064;-69
2022/05/19 05:48:37;;;;;;;14.85;13.38;;;23.40;99.90;;;;;;5033803;28;20057;-69
2022/05/19 05:51:08;;;;;;;18.25;13.05;;;24.30;99.90;;;;;;5035757;28;20057;-70
2022/05/19 05:53:35;;;;;;;14.15;12.68;;;25.30;99.90;;;;;;5034062;28;20059;-70
2022/05/19 05:56:02;;;;;;;13.52;12.15;;;26.10;99.90;;;;;;5033508;28;20056;-70
2022/05/19 05:58:27;;;;;;;12.40;11.30;;;26.90;99.90;;;;;;5033187;28;20052;-70
2022/05/19 06:00:53;;;;;;;13.32;11.57;;;27.40;99.90;;;;;;5034800;28;20467;-71
2022/05/19 06:03:19;;;;;;;12.63;11.43;;;27.50;99.90;;;;;;5033640;28;20029;-71
2022/05/19 06:05:45;;;;;;;12.35;11.10;;;27.10;99.50;;;;;;5036276;28;20124;-71
2022/05/19 06:08:10;;;;;;;11.05;9.98;;;26.50;99.90;;;;;;5040384;28;20037;-70
2022/05/19 06:10:36;;;;;;;11.27;10.18;;;26.00;99.90;;;;;;5034678;28;20048;-71
2022/05/19 06:13:02;;;;;;;11.52;10.38;;;25.70;99.90;;;;;;5029560;28;20049;-70
2022/05/19 06:15:28;;;;;;;10.23;8.98;;;25.50;99.90;;;;;;5034070;28;20055;-70
2022/05/19 06:17:53;;;;;;;11.07;8.10;;;25.20;99.90;;;;;;5036413;28;20093;-70
2022/05/19 06:20:19;;;;;;;9.93;8.27;;;24.80;99.90;;;;;;5036349;28;20033;-70
2022/05/19 06:22:46;;;;;;;8.77;7.95;;;25.20;99.90;;;;;;5046513;28;20041;-70
2022/05/19 06:25:16;;;;;;;8.57;7.78;;;25.60;99.90;;;;;;5050485;28;20056;-70
2022/05/19 06:27:42;;;;;;;8.60;7.68;;;25.20;99.90;;;;;;5033160;28;20120;-70
2022/05/19 06:30:08;;;;;;;9.77;7.13;;;25.60;99.90;;;;;;5034030;28;20088;-70
2022/05/19 06:32:37;;;;;;;7.45;6.70;;;25.50;99.90;;;;;;5031756;28;20045;-71
2022/05/19 06:35:04;;;;;;;8.00;7.20;;;25.20;99.90;;;;;;5031055;28;20042;-68
2022/05/19 06:37:30;;;;;;;10.77;7.07;;;25.80;99.90;;;;;;5033186;28;20077;-67
2022/05/19 06:39:55;;;;;;;8.00;5.60;;;26.70;99.90;;;;;;5033569;28;20049;-66
2022/05/19 06:42:21;;;;;;;5.53;4.63;;;27.40;99.90;;;;;;5028325;28;20038;-68
2022/05/19 06:44:47;;;;;;;6.03;5.03;;;27.90;99.00;;;;;;5027850;28;20034;-66
2022/05/19 06:47:16;;;;;;;5.18;4.68;;;28.00;96.90;;;;;;5031032;28;20095;-68
2022/05/19 06:49:48;;;;;;;4.38;3.33;;;27.70;98.10;;;;;;5034445;28;20346;-69
2022/05/19 06:52:15;;;;;;;4.10;3.20;;;27.10;96.50;;;;;;5037131;28;20088;-68
2022/05/19 06:54:48;;;;;;;5.47;3.80;;;26.60;98.30;;;;;;5028954;28;20080;-67
2022/05/19 06:57:15;;;;;;;7.13;4.65;;;26.20;99.90;;;;;;5023034;28;20329;-67
2022/05/19 06:59:41;;;;;;;9.02;4.50;;;25.80;99.90;;;;;;5028394;28;20069;-66
2022/05/19 07:02:07;;;;;;;9.68;4.50;;;25.70;99.90;;;;;;5027064;28;20045;-69
2022/05/19 07:04:33;;;;;;;7.10;3.93;;;26.00;99.90;;;;;;5030577;28;20128;-69
2022/05/19 07:06:59;;;;;;;5.18;3.45;;;26.20;99.90;;;;;;5029798;28;20152;-67
2022/05/19 07:09:25;;;;;;;4.10;3.65;;;26.20;98.50;;;;;;5033695;28;20060;-67
2022/05/19 07:11:50;;;;;;;5.43;4.10;;;26.60;99.90;;;;;;5032111;28;20041;-67
2022/05/19 07:14:17;;;;;;;5.43;4.57;;;26.80;99.90;;;;;;5034591;28;20037;-67
2022/05/19 07:16:44;;;;;;;5.33;4.73;;;27.00;99.90;;;;;;5029420;28;20142;-68
2022/05/19 07:21:55;;;;;;;5.88;3.88;;;26.70;99.70;;;;;;5026641;28;20061;-68
2022/05/19 07:24:21;;;;;;;5.38;4.28;;;26.40;99.90;;;;;;5033063;28;20389;-68
2022/05/19 07:26:54;;;;;;;5.13;4.53;;;26.00;99.00;;;;;;5028993;28;20487;-68
2022/05/19 07:29:21;;;;;;;7.50;4.55;;;25.40;99.50;;;;;;5028078;28;20061;-68
2022/05/19 07:31:47;;;;;;;6.03;4.05;;;25.10;99.90;;;;;;5032202;28;20041;-66
2022/05/19 07:34:15;;;;;;;9.25;6.35;;;24.90;99.90;;;;;;5023835;28;20685;-67
2022/05/19 07:36:40;;;;;;;5.47;4.28;;;24.50;99.90;;;;;;5035523;28;20037;-67
2022/05/19 07:39:07;;;;;;;6.93;4.43;;;24.10;99.90;;;;;;5036720;28;20083;-68
2022/05/19 07:41:33;;;;;;;5.70;4.40;;;24.00;99.90;;;;;;5035500;28;20096;-68
2022/05/19 07:43:59;;;;;;;7.88;5.20;;;23.90;99.90;;;;;;5032169;28;20041;-68
2022/05/19 07:46:25;;;;;;;7.70;4.72;;;23.60;99.90;;;;;;5013660;28;20398;-68
2022/05/19 07:48:54;;;;;;;6.53;4.20;;;23.40;99.90;;;;;;5035633;28;20480;-68
2022/05/19 07:51:21;;;;;;;7.47;4.40;;;23.20;99.90;;;;;;5037445;28;20080;-67
2022/05/19 07:53:47;;;;;;;6.32;4.95;;;23.10;99.90;;;;;;5034262;28;20041;-68
2022/05/19 07:56:13;;;;;;;8.27;5.03;;;22.80;99.90;;;;;;5031610;28;20075;-70
2022/05/19 07:58:38;;;;;;;6.43;5.10;;;22.80;99.90;;;;;;5030497;28;20444;-68
2022/05/19 08:01:04;;;;;;;5.70;3.60;;;22.90;99.90;;;;;;5031582;28;20033;-68
2022/05/19 08:03:30;;;;;;;5.95;3.38;;;22.80;99.90;;;;;;5031050;28;20485;-69
2022/05/19 08:05:55;;;;;;;4.13;3.22;;;22.80;99.90;;;;;;5033689;28;20331;-67
2022/05/19 08:08:21;;;;;;;3.67;3.38;;;23.00;99.90;;;;;;5031375;28;20037;-68
2022/05/19 08:10:47;;;;;;;5.93;3.22;;;23.00;99.90;;;;;;5026138;28;20051;-68
2022/05/19 08:15:57;;;;;;;4.55;3.67;;;22.80;99.90;;;;;;5031333;28;20139;-67
2022/05/19 08:18:24;;;;;;;4.13;3.38;;;22.90;99.90;;;;;;5011694;28;20811;-67
2022/05/19 08:20:53;;;;;;;4.03;3.63;;;22.90;99.90;;;;;;5029904;28;20037;-68
2022/05/19 08:23:24;;;;;;;4.63;3.83;;;22.80;99.90;;;;;;5027453;28;20040;-68
2022/05/19 08:25:50;;;;;;;6.68;4.00;;;22.70;99.90;;;;;;5025773;28;20056;-68
2022/05/19 08:28:18;;;;;;;5.40;4.05;;;22.80;99.90;;;;;;5026861;28;20136;-67
2022/05/19 08:30:47;;;;;;;6.38;4.53;;;23.00;99.90;;;;;;5028239;28;20048;-68
2022/05/19 08:33:13;;;;;;;4.70;4.28;;;23.00;99.90;;;;;;5025411;28;20481;-67
2022/05/19 08:35:39;;;;;;;6.80;5.05;;;23.00;99.90;;;;;;5029352;28;20038;-68
2022/05/19 08:38:04;;;;;;;6.03;4.68;;;23.00;99.90;;;;;;5026647;28;20049;-68
2022/05/19 08:40:37;;;;;;;4.97;4.50;;;23.00;99.90;;;;;;5026902;28;20041;-68
2022/05/19 08:43:02;;;;;;;4.57;4.03;;;23.10;99.90;;;;;;5026665;28;20060;-68
2022/05/19 08:45:35;;;;;;;5.68;4.38;;;23.10;99.90;;;;;;5029862;28;20041;-68
2022/05/19 08:48:06;;;;;;;5.20;4.70;;;23.20;99.90;;;;;;5022619;28;20448;-68
2022/05/19 08:50:54;;;;;;;5.30;4.45;;;23.10;99.90;;;;;;5026639;28;20045;-69
2022/05/19 08:53:31;;;;;;;5.43;3.60;;;23.20;99.90;;;;;;5029151;28;20041;-68
2022/05/19 08:56:09;;;;;;;5.53;4.95;;;23.20;99.90;;;;;;5026498;28;20045;-68
2022/05/19 08:59:05;;;;;;;7.30;5.00;;;23.20;99.90;;;;;;5030096;28;20055;-68
2022/05/19 09:01:45;;;;;;;7.72;5.22;;;23.00;99.90;;;;;;5030215;28;20049;-68
2022/05/19 09:04:20;;;;;;;7.85;5.50;;;22.90;99.90;;;;;;5024529;28;20041;-68
2022/05/19 09:10:53;;;;;;;7.35;5.38;;;23.10;99.90;;;;;;5022077;28;20104;-68
2022/05/19 09:13:37;;;;;;;6.70;5.50;;;23.10;99.90;;;;;;5028547;28;20124;-68
2022/05/19 09:16:12;;;;;;;8.40;5.90;;;23.40;99.90;;;;;;5028425;28;20041;-69
2022/05/19 09:18:41;;;;;;;6.63;5.97;;;23.50;99.90;;;;;;5029610;28;20048;-68
2022/05/19 09:21:07;;;;;;;9.75;6.45;;;23.50;99.90;;;;;;5025584;28;20052;-68
2022/05/19 09:23:40;;;;;;;7.20;6.10;;;23.60;99.90;;;;;;5036416;28;20042;-68
2022/05/19 09:26:33;;;;;;;6.57;5.80;;;23.60;99.90;;;;;;5034844;28;20124;-69
2022/05/19 09:29:07;;;;;;;8.10;5.70;;;23.90;99.90;;;;;;5035359;28;20456;-69
2022/05/19 09:31:47;;;;;;;6.32;5.70;;;24.10;99.90;;;;;;5031634;28;20034;-69
2022/05/19 09:34:13;;;;;;;5.75;5.25;;;24.40;99.90;;;;;;5036041;28;20045;-68
2022/05/19 09:36:53;;;;;;;5.93;5.32;;;24.60;99.90;;;;;;5036246;28;20042;-68
2022/05/19 09:39:20;;;;;;;5.97;5.47;;;24.80;99.90;;;;;;5037779;28;20034;-68
2022/05/19 09:41:51;;;;;;;7.88;6.03;;;25.10;99.90;;;;;;5037347;28;20385;-70
2022/05/19 09:44:27;;;;;;;6.30;5.70;;;25.30;99.90;;;;;;5028180;28;20045;-69
2022/05/19 09:46:53;;;;;;;7.78;6.97;;;25.30;99.90;;;;;;5023640;28;20481;-69
2022/05/19 09:49:33;;;;;;;10.85;7.82;;;25.30;99.90;;;;;;5027860;28;20056;-69
2022/05/19 09:52:03;;;;;;;8.35;6.90;;;25.50;99.90;;;;;;5029490;28;20072;-69
2022/05/19 09:54:34;;;;;;;7.85;6.97;;;25.50;99.90;;;;;;5028425;28;20033;-70
2022/05/19 09:57:05;;;;;;;7.60;6.85;;;25.60;99.90;;;;;;5031062;28;20088;-69
2022/05/19 09:59:45;;;;;;;8.13;6.97;;;26.30;99.90;;;;;;5024861;28;20408;-68
2022/05/19 10:02:24;;;;;;;7.20;6.50;;;26.20;99.90;;;;;;5027855;28;20038;-69
2022/05/19 10:04:58;;;;;;;7.03;6.32;;;26.40;99.90;;;;;;5023719;28;20045;-69
2022/05/19 10:07:36;;;;;;;6.80;6.10;;;26.10;99.90;;;;;;5028243;28;20496;-69
2022/05/19 10:10:15;;;;;;;7.43;6.63;;;26.10;99.90;;;;;;5027673;28;20045;-68
2022/05/19 10:12:46;;;;;;;7.05;6.45;;;26.10;99.90;;;;;;5027289;28;20038;-68
2022/05/19 10:15:15;;;;;;;7.93;7.03;;;26.20;99.90;;;;;;5028426;28;20045;-69
2022/05/19 10:18:05;;;;;;;8.52;6.95;;;26.60;99.90;;;;;;5027681;28;20110;-69
2022/05/19 10:20:45;;;;;;;6.68;5.80;;;27.00;99.90;;;;;;5027847;28;20516;-68
2022/05/19 10:23:16;;;;;;;5.80;5.30;;;26.80;99.60;;;;;;5025923;28;20096;-69
2022/05/19 10:26:02;;;;;;;6.78;6.03;;;27.40;99.40;;;;;;5027472;28;20049;-69
2022/05/19 10:31:54;;;;;;;7.93;5.47;;;27.10;98.00;;;;;;5031050;28;20055;-68
2022/05/19 10:34:38;;;;;;;8.82;6.00;;;27.10;97.20;;;;;;5031622;28;20051;-68
2022/05/19 10:37:22;;;;;;;8.05;5.43;;;27.20;96.80;;;;;;5030269;28;20080;-68
2022/05/19 10:40:02;;;;;;;9.45;6.40;;;27.10;98.20;;;;;;5025200;28;20128;-69
2022/05/19 10:42:47;;;;;;;7.32;5.90;;;27.20;97.30;;;;;;5026162;28;20503;-69
2022/05/19 10:45:37;;;;;;;6.97;6.30;;;27.10;97.40;;;;;;5026192;28;20033;-69
2022/05/19 10:48:35;;;;;;;7.38;6.18;;;26.90;97.10;;;;;;5024794;28;20048;-69
2022/05/19 10:51:36;;;;;;;8.32;6.30;;;26.50;97.00;;;;;;5025464;28;20042;-69
2022/05/19 10:54:27;;;;;;;6.32;5.82;;;26.50;97.40;;;;;;5008758;28;20405;-69
2022/05/19 10:57:09;;;;;;;6.20;5.55;;;26.30;96.40;;;;;;5026585;28;20054;-69
2022/05/19 10:59:56;;;;;;;8.30;5.68;;;26.60;97.60;;;;;;5025880;28;20654;-69
2022/05/19 11:02:33;;;;;;;7.18;6.28;;;27.00;96.80;;;;;;5028112;28;20122;-69
2022/05/19 11:05:08;;;;;;;6.32;5.72;;;27.40;96.50;;;;;;5025955;28;20053;-69
2022/05/19 11:07:42;;;;;;;5.57;5.07;;;27.60;95.20;;;;;;5028292;28;20040;-69
2022/05/19 11:10:26;;;;;;;7.60;5.55;;;27.80;95.50;;;;;;5030626;28;20072;-68
2022/05/19 11:13:27;;;;;;;5.22;3.85;;;28.10;94.10;;;;;;5027467;28;20378;-69
2022/05/19 11:16:27;;;;;;;4.00;3.60;;;28.20;93.00;;;;;;4955350;29;20043;-69
2022/05/19 11:19:29;;;;;;;5.32;3.75;;;28.20;90.70;;;;;;4950870;28;20155;-69
2022/05/19 11:22:05;;;;;;;4.03;3.65;;;28.40;90.70;;;;;;4920135;29;20051;-69
2022/05/19 11:27:53;;;;;;;4.28;3.88;;;28.20;89.80;;;;;;4892292;29;20331;-69
2022/05/19 11:30:28;;;;;;;3.55;3.25;;;28.70;88.40;;;;;;4894870;29;20075;-68
2022/05/19 11:32:58;;;;;;;5.22;3.25;;;28.30;86.80;;;;;;4894524;29;20496;-69
2022/05/19 11:35:33;;;;;;;3.67;2.80;;;28.60;86.00;;;;;;4898917;29;20056;-69
2022/05/19 11:38:28;;;;;;;3.80;2.72;;;28.30;82.90;;;;;;4895991;29;20141;-69
2022/05/19 11:41:04;;;;;;;4.38;2.70;;;28.40;84.70;;;;;;4892675;29;20048;-68
2022/05/19 11:43:52;;;;;;;3.10;2.58;;;28.80;82.80;;;;;;4894169;29;20159;-69
2022/05/19 11:46:25;;;;;;;3.35;3.00;;;28.90;83.40;;;;;;4888600;29;20044;-67
2022/05/19 11:57:39;;;;;;;3.40;3.00;;;28.80;80.00;;;;;;4946332;29;20507;-68
2022/05/19 12:00:07;;;;;;;3.75;2.28;;;28.50;78.50;;;;;;4954573;29;20061;-67
2022/05/19 12:03:03;;;;;;;2.38;2.03;;;28.70;77.20;;;;;;5025397;28;20061;-67
2022/05/19 12:05:56;;;;;;;2.67;2.38;;;28.90;79.20;;;;;;5032565;28;20144;-68
2022/05/19 12:08:33;;;;;;;3.55;2.60;;;29.10;76.50;;;;;;5036281;28;20122;-67
2022/05/19 12:11:18;;;;;;;5.07;2.80;;;29.10;75.00;;;;;;5032893;28;20116;-68
2022/05/19 12:14:07;;;;;;;5.50;2.90;;;29.10;77.00;;;;;;5034154;28;20568;-67
2022/05/19 12:17:09;;;;;;;6.47;2.47;;;29.20;76.80;;;;;;5034529;28;20056;-67
2022/05/19 12:19:40;;;;;;;2.88;2.60;;;28.90;77.30;;;;;;5035368;28;20038;-67
2022/05/19 12:22:31;;;;;;;4.10;2.58;;;28.80;77.80;;;;;;5020774;28;20038;-68
2022/05/19 12:25:19;;;;;;;4.03;2.38;;;29.00;81.40;;;;;;5015299;28;20057;-68
2022/05/19 12:27:57;;;;;;;4.30;2.58;;;28.90;77.90;;;;;;5028104;28;20136;-68
2022/05/19 12:33:35;;;;;;;3.08;2.33;;;28.80;78.40;;;;;;5014489;28;20486;-67
2022/05/19 12:36:25;;;;;;;2.60;2.20;;;28.60;75.30;;;;;;5014523;28;20041;-68
2022/05/19 12:38:51;;;;;;;2.65;1.50;;;28.10;73.90;;;;;;5033288;28;20102;-68
2022/05/19 12:41:23;;;;;;;4.55;1.67;;;28.00;79.00;;;;;;5036639;28;20049;-68
2022/05/19 12:43:49;;;;;;;5.38;2.03;;;27.80;80.00;;;;;;5034111;28;20045;-68
2022/05/19 12:46:33;;;;;;;4.30;1.80;;;27.50;80.50;;;;;;5032761;28;20041;-67
2022/05/19 12:49:23;;;;;;;16.42;4.63;;;27.20;79.80;;;;;;5033039;28;20059;-68
2022/05/19 12:51:58;;;;;;;10.23;3.60;;;26.50;99.90;;;;;;5030099;28;20049;-68
2022/05/19 12:54:31;;;;;;;10.40;4.20;;;25.80;99.90;;;;;;5029285;28;20120;-68
2022/05/19 12:57:11;;;;;;;11.13;4.20;;;25.20;99.90;;;;;;5027511;28;20064;-67
2022/05/19 12:59:39;;;;;;;6.45;3.75;;;24.80;99.90;;;;;;5030569;28;20513;-67
2022/05/19 13:02:09;;;;;;;6.38;3.80;;;24.40;99.90;;;;;;5029535;28;20068;-67
2022/05/19 13:04:48;;;;;;;6.10;3.70;;;23.90;99.90;;;;;;5028343;28;20053;-67
2022/05/19 13:07:35;;;;;;;6.47;3.70;;;23.60;99.90;;;;;;5028687;28;20037;-67
2022/05/19 13:10:25;;;;;;;6.65;3.72;;;23.10;99.90;;;;;;5024279;28;20065;-67
2022/05/19 13:13:12;;;;;;;5.70;3.85;;;23.10;99.90;;;;;;5031849;28;20049;-66
2022/05/19 13:15:54;;;;;;;5.75;4.20;;;22.80;99.90;;;;;;5029195;28;20125;-66
2022/05/19 13:18:28;;;;;;;9.43;4.07;;;22.60;99.90;;;;;;5031025;28;20041;-66
2022/05/19 13:21:18;;;;;;;5.30;4.00;;;22.30;99.90;;;;;;5028080;28;20048;-66
2022/05/19 13:23:45;;;;;;;11.93;5.60;;;22.10;99.90;;;;;;5030522;28;20414;-66
2022/05/19 13:26:27;;;;;;;7.35;5.82;;;21.70;99.90;;;;;;5030776;28;20033;-66
2022/05/19 13:31:48;;;;;;;;;;;21.50;99.90;;;;;;5014510;28;20571;-66
2022/05/19 13:34:14;;;;;;;12.02;8.25;;;21.20;99.90;;;;;;5032154;28;19921;-66